sensor_id;sensor_type;location;lat;lon;timestamp;P1;durP1;ratioP1;P2;durP2;ratioP2
75437;SDS011;64015;49.392;15.582;2023-09-19T00:00:49;1.88;;;0.40;;
75437;SDS011;64015;49.392;15.582;2023-09-19T00:03:35;1.48;;;0.50;;
75437;SDS011;64015;49.392;15.582;2023-09-19T00:06:02;1.30;;;0.40;;
75437;SDS011;64015;49.392;15.582;2023-09-19T00:08:30;1.38;;;0.55;;
75437;SDS011;64015;49.392;15.582;2023-09-19T00:10:56;2.80;;;0.40;;
75437;SDS011;64015;49.392;15.582;2023-09-19T00:13:29;2.42;;;0.57;;
75437;SDS011;64015;49.392;15.582;2023-09-19T00:19:17;1.65;;;0.35;;
75437;SDS011;64015;49.392;15.582;2023-09-19T00:21:43;1.65;;;0.40;;
75437;SDS011;64015;49.392;15.582;2023-09-19T00:27:10;1.85;;;0.60;;
75437;SDS011;64015;49.392;15.582;2023-09-19T00:29:41;1.50;;;0.85;;
75437;SDS011;64015;49.392;15.582;2023-09-19T00:32:16;2.78;;;0.60;;
75437;SDS011;64015;49.392;15.582;2023-09-19T00:34:47;1.30;;;0.30;;
75437;SDS011;64015;49.392;15.582;2023-09-19T00:37:13;1.33;;;0.60;;
75437;SDS011;64015;49.392;15.582;2023-09-19T00:43:15;1.60;;;0.30;;
75437;SDS011;64015;49.392;15.582;2023-09-19T00:49:15;1.13;;;0.30;;
75437;SDS011;64015;49.392;15.582;2023-09-19T00:51:41;2.38;;;0.52;;
75437;SDS011;64015;49.392;15.582;2023-09-19T00:54:12;2.42;;;0.70;;
75437;SDS011;64015;49.392;15.582;2023-09-19T00:56:43;1.45;;;0.52;;
75437;SDS011;64015;49.392;15.582;2023-09-19T00:59:11;1.77;;;0.70;;
75437;SDS011;64015;49.392;15.582;2023-09-19T01:01:57;1.88;;;0.50;;
75437;SDS011;64015;49.392;15.582;2023-09-19T01:04:31;2.45;;;0.60;;
75437;SDS011;64015;49.392;15.582;2023-09-19T01:10:20;1.98;;;0.68;;
75437;SDS011;64015;49.392;15.582;2023-09-19T01:16:19;1.10;;;0.30;;
75437;SDS011;64015;49.392;15.582;2023-09-19T01:19:46;1.27;;;0.43;;
75437;SDS011;64015;49.392;15.582;2023-09-19T01:30:30;1.70;;;0.65;;
75437;SDS011;64015;49.392;15.582;2023-09-19T01:33:04;0.93;;;0.40;;
75437;SDS011;64015;49.392;15.582;2023-09-19T01:35:34;1.77;;;0.40;;
75437;SDS011;64015;49.392;15.582;2023-09-19T01:38:04;1.98;;;0.40;;
75437;SDS011;64015;49.392;15.582;2023-09-19T01:40:35;1.50;;;0.50;;
75437;SDS011;64015;49.392;15.582;2023-09-19T01:43:20;1.98;;;0.50;;
75437;SDS011;64015;49.392;15.582;2023-09-19T01:54:36;1.40;;;0.40;;
75437;SDS011;64015;49.392;15.582;2023-09-19T02:00:20;1.65;;;0.50;;
75437;SDS011;64015;49.392;15.582;2023-09-19T02:06:04;1.73;;;0.43;;
75437;SDS011;64015;49.392;15.582;2023-09-19T02:08:30;4.50;;;1.00;;
75437;SDS011;64015;49.392;15.582;2023-09-19T02:10:59;1.83;;;0.50;;
75437;SDS011;64015;49.392;15.582;2023-09-19T02:13:25;2.90;;;0.60;;
75437;SDS011;64015;49.392;15.582;2023-09-19T02:16:04;3.72;;;0.75;;
75437;SDS011;64015;49.392;15.582;2023-09-19T02:21:48;1.63;;;0.52;;
75437;SDS011;64015;49.392;15.582;2023-09-19T02:24:23;3.75;;;0.93;;
75437;SDS011;64015;49.392;15.582;2023-09-19T02:27:04;1.98;;;0.40;;
75437;SDS011;64015;49.392;15.582;2023-09-19T02:29:33;2.72;;;0.70;;
75437;SDS011;64015;49.392;15.582;2023-09-19T02:32:01;2.83;;;0.73;;
75437;SDS011;64015;49.392;15.582;2023-09-19T02:34:28;2.72;;;0.90;;
75437;SDS011;64015;49.392;15.582;2023-09-19T02:36:53;2.03;;;0.60;;
75437;SDS011;64015;49.392;15.582;2023-09-19T02:39:21;2.05;;;0.40;;
75437;SDS011;64015;49.392;15.582;2023-09-19T02:41:48;2.03;;;0.63;;
75437;SDS011;64015;49.392;15.582;2023-09-19T02:50:05;3.45;;;0.60;;
75437;SDS011;64015;49.392;15.582;2023-09-19T02:52:36;1.58;;;0.57;;
75437;SDS011;64015;49.392;15.582;2023-09-19T02:55:18;2.65;;;0.45;;
75437;SDS011;64015;49.392;15.582;2023-09-19T02:57:58;1.77;;;0.73;;
75437;SDS011;64015;49.392;15.582;2023-09-19T03:00:24;1.70;;;0.60;;
75437;SDS011;64015;49.392;15.582;2023-09-19T03:02:50;2.00;;;0.60;;
75437;SDS011;64015;49.392;15.582;2023-09-19T03:05:21;3.03;;;0.63;;
75437;SDS011;64015;49.392;15.582;2023-09-19T03:08:18;2.50;;;0.80;;
75437;SDS011;64015;49.392;15.582;2023-09-19T03:10:47;3.42;;;0.80;;
75437;SDS011;64015;49.392;15.582;2023-09-19T03:27:28;3.17;;;0.63;;
75437;SDS011;64015;49.392;15.582;2023-09-19T03:34:48;2.63;;;0.50;;
75437;SDS011;64015;49.392;15.582;2023-09-19T03:43:53;2.83;;;0.63;;
75437;SDS011;64015;49.392;15.582;2023-09-19T04:10:04;1.58;;;0.47;;
75437;SDS011;64015;49.392;15.582;2023-09-19T04:12:34;1.50;;;0.50;;
75437;SDS011;64015;49.392;15.582;2023-09-19T04:18:34;2.13;;;0.57;;
75437;SDS011;64015;49.392;15.582;2023-09-19T04:32:57;4.80;;;0.73;;
75437;SDS011;64015;49.392;15.582;2023-09-19T04:39:05;1.95;;;0.73;;
75437;SDS011;64015;49.392;15.582;2023-09-19T04:45:32;3.97;;;0.70;;
75437;SDS011;64015;49.392;15.582;2023-09-19T04:52:57;1.67;;;0.80;;
75437;SDS011;64015;49.392;15.582;2023-09-19T04:55:25;1.98;;;0.60;;
75437;SDS011;64015;49.392;15.582;2023-09-19T04:57:55;1.83;;;0.70;;
75437;SDS011;64015;49.392;15.582;2023-09-19T05:00:22;1.67;;;0.50;;
75437;SDS011;64015;49.392;15.582;2023-09-19T05:02:51;2.47;;;0.77;;
75437;SDS011;64015;49.392;15.582;2023-09-19T05:08:24;1.70;;;0.60;;
75437;SDS011;64015;49.392;15.582;2023-09-19T05:10:52;2.60;;;0.70;;
75437;SDS011;64015;49.392;15.582;2023-09-19T05:16:27;4.35;;;0.80;;
75437;SDS011;64015;49.392;15.582;2023-09-19T05:19:14;2.17;;;0.70;;
75437;SDS011;64015;49.392;15.582;2023-09-19T05:21:49;1.58;;;0.60;;
75437;SDS011;64015;49.392;15.582;2023-09-19T05:24:31;3.33;;;0.68;;
75437;SDS011;64015;49.392;15.582;2023-09-19T05:41:07;1.98;;;0.80;;
75437;SDS011;64015;49.392;15.582;2023-09-19T05:43:58;2.88;;;1.33;;
75437;SDS011;64015;49.392;15.582;2023-09-19T05:46:26;1.88;;;0.65;;
75437;SDS011;64015;49.392;15.582;2023-09-19T05:49:06;4.18;;;0.98;;
75437;SDS011;64015;49.392;15.582;2023-09-19T05:55:32;2.50;;;0.93;;
75437;SDS011;64015;49.392;15.582;2023-09-19T05:58:16;2.15;;;0.65;;
75437;SDS011;64015;49.392;15.582;2023-09-19T06:00:45;1.98;;;0.60;;
75437;SDS011;64015;49.392;15.582;2023-09-19T06:03:27;2.92;;;0.68;;
75437;SDS011;64015;49.392;15.582;2023-09-19T06:06:07;2.92;;;0.80;;
75437;SDS011;64015;49.392;15.582;2023-09-19T06:11:45;1.95;;;0.70;;
75437;SDS011;64015;49.392;15.582;2023-09-19T06:14:12;2.13;;;0.88;;
75437;SDS011;64015;49.392;15.582;2023-09-19T06:16:38;3.70;;;1.02;;
75437;SDS011;64015;49.392;15.582;2023-09-19T06:22:01;1.80;;;0.70;;
75437;SDS011;64015;49.392;15.582;2023-09-19T06:24:43;2.83;;;0.90;;
75437;SDS011;64015;49.392;15.582;2023-09-19T06:27:08;4.18;;;0.93;;
75437;SDS011;64015;49.392;15.582;2023-09-19T06:36:26;4.43;;;0.80;;
75437;SDS011;64015;49.392;15.582;2023-09-19T06:38:52;4.78;;;1.35;;
75437;SDS011;64015;49.392;15.582;2023-09-19T06:41:19;3.60;;;0.90;;
75437;SDS011;64015;49.392;15.582;2023-09-19T06:43:56;3.80;;;1.00;;
75437;SDS011;64015;49.392;15.582;2023-09-19T06:49:32;4.88;;;1.20;;
75437;SDS011;64015;49.392;15.582;2023-09-19T06:51:58;2.58;;;1.00;;
75437;SDS011;64015;49.392;15.582;2023-09-19T06:54:28;2.35;;;0.95;;
75437;SDS011;64015;49.392;15.582;2023-09-19T06:56:59;2.22;;;0.95;;
75437;SDS011;64015;49.392;15.582;2023-09-19T06:59:25;2.03;;;1.10;;
75437;SDS011;64015;49.392;15.582;2023-09-19T07:05:46;3.08;;;0.98;;
75437;SDS011;64015;49.392;15.582;2023-09-19T07:08:16;5.05;;;1.25;;
75437;SDS011;64015;49.392;15.582;2023-09-19T07:14:11;2.83;;;1.00;;
75437;SDS011;64015;49.392;15.582;2023-09-19T07:20:09;2.38;;;0.90;;
75437;SDS011;64015;49.392;15.582;2023-09-19T07:22:45;4.53;;;1.10;;
75437;SDS011;64015;49.392;15.582;2023-09-19T07:28:32;2.63;;;0.90;;
75437;SDS011;64015;49.392;15.582;2023-09-19T07:33:52;3.67;;;1.20;;
75437;SDS011;64015;49.392;15.582;2023-09-19T07:36:19;3.85;;;1.30;;
75437;SDS011;64015;49.392;15.582;2023-09-19T07:42:37;3.20;;;1.05;;
75437;SDS011;64015;49.392;15.582;2023-09-19T07:45:07;4.32;;;1.73;;
75437;SDS011;64015;49.392;15.582;2023-09-19T07:47:45;3.05;;;1.15;;
75437;SDS011;64015;49.392;15.582;2023-09-19T07:50:23;2.45;;;1.00;;
75437;SDS011;64015;49.392;15.582;2023-09-19T07:53:37;2.83;;;0.95;;
75437;SDS011;64015;49.392;15.582;2023-09-19T07:59:00;3.35;;;1.25;;
75437;SDS011;64015;49.392;15.582;2023-09-19T08:04:26;3.13;;;1.30;;
75437;SDS011;64015;49.392;15.582;2023-09-19T08:10:08;3.15;;;1.40;;
75437;SDS011;64015;49.392;15.582;2023-09-19T08:12:42;3.92;;;1.30;;
75437;SDS011;64015;49.392;15.582;2023-09-19T08:15:12;3.40;;;1.27;;
75437;SDS011;64015;49.392;15.582;2023-09-19T08:17:39;3.55;;;1.23;;
75437;SDS011;64015;49.392;15.582;2023-09-19T08:20:05;4.32;;;1.20;;
75437;SDS011;64015;49.392;15.582;2023-09-19T08:22:51;3.70;;;1.60;;
75437;SDS011;64015;49.392;15.582;2023-09-19T08:29:17;2.33;;;1.33;;
75437;SDS011;64015;49.392;15.582;2023-09-19T08:31:43;3.33;;;1.10;;
75437;SDS011;64015;49.392;15.582;2023-09-19T08:34:09;4.13;;;1.48;;
75437;SDS011;64015;49.392;15.582;2023-09-19T08:36:35;2.67;;;1.52;;
75437;SDS011;64015;49.392;15.582;2023-09-19T08:42:57;3.88;;;1.55;;
75437;SDS011;64015;49.392;15.582;2023-09-19T08:52:43;3.05;;;1.38;;
75437;SDS011;64015;49.392;15.582;2023-09-19T08:55:13;5.05;;;1.67;;
75437;SDS011;64015;49.392;15.582;2023-09-19T08:57:51;3.25;;;1.63;;
75437;SDS011;64015;49.392;15.582;2023-09-19T09:00:25;4.60;;;1.75;;
75437;SDS011;64015;49.392;15.582;2023-09-19T09:02:53;2.78;;;1.40;;
75437;SDS011;64015;49.392;15.582;2023-09-19T09:05:21;3.83;;;1.23;;
75437;SDS011;64015;49.392;15.582;2023-09-19T09:07:48;3.75;;;1.75;;
75437;SDS011;64015;49.392;15.582;2023-09-19T09:10:18;2.05;;;1.10;;
75437;SDS011;64015;49.392;15.582;2023-09-19T09:12:50;2.50;;;1.20;;
75437;SDS011;64015;49.392;15.582;2023-09-19T09:15:23;4.13;;;1.30;;
75437;SDS011;64015;49.392;15.582;2023-09-19T09:17:52;3.47;;;1.52;;
75437;SDS011;64015;49.392;15.582;2023-09-19T09:20:23;2.22;;;1.25;;
75437;SDS011;64015;49.392;15.582;2023-09-19T09:29:04;3.05;;;1.27;;
75437;SDS011;64015;49.392;15.582;2023-09-19T09:31:30;3.40;;;1.38;;
75437;SDS011;64015;49.392;15.582;2023-09-19T09:33:57;3.65;;;1.40;;
75437;SDS011;64015;49.392;15.582;2023-09-19T09:36:39;3.17;;;1.40;;
75437;SDS011;64015;49.392;15.582;2023-09-19T09:39:09;3.33;;;1.20;;
75437;SDS011;64015;49.392;15.582;2023-09-19T09:41:49;3.42;;;1.30;;
75437;SDS011;64015;49.392;15.582;2023-09-19T09:44:17;2.67;;;1.15;;
75437;SDS011;64015;49.392;15.582;2023-09-19T10:03:57;2.72;;;0.90;;
75437;SDS011;64015;49.392;15.582;2023-09-19T10:06:43;2.97;;;1.05;;
75437;SDS011;64015;49.392;15.582;2023-09-19T10:09:18;2.42;;;0.88;;
75437;SDS011;64015;49.392;15.582;2023-09-19T10:12:03;4.10;;;1.08;;
75437;SDS011;64015;49.392;15.582;2023-09-19T10:14:35;2.70;;;1.20;;
75437;SDS011;64015;49.392;15.582;2023-09-19T10:17:05;2.90;;;1.20;;
75437;SDS011;64015;49.392;15.582;2023-09-19T10:19:41;3.05;;;1.23;;
75437;SDS011;64015;49.392;15.582;2023-09-19T10:22:14;2.00;;;1.13;;
75437;SDS011;64015;49.392;15.582;2023-09-19T10:25:09;6.38;;;1.85;;
75437;SDS011;64015;49.392;15.582;2023-09-19T10:27:38;3.45;;;1.27;;
75437;SDS011;64015;49.392;15.582;2023-09-19T10:30:25;2.22;;;0.98;;
75437;SDS011;64015;49.392;15.582;2023-09-19T10:42:53;2.30;;;1.15;;
75437;SDS011;64015;49.392;15.582;2023-09-19T10:45:23;2.10;;;1.52;;
75437;SDS011;64015;49.392;15.582;2023-09-19T10:47:54;2.60;;;1.02;;
75437;SDS011;64015;49.392;15.582;2023-09-19T10:50:26;2.03;;;1.83;;
75437;SDS011;64015;49.392;15.582;2023-09-19T10:53:00;2.25;;;1.20;;
75437;SDS011;64015;49.392;15.582;2023-09-19T10:55:30;2.40;;;1.20;;
75437;SDS011;64015;49.392;15.582;2023-09-19T10:57:58;3.72;;;1.27;;
75437;SDS011;64015;49.392;15.582;2023-09-19T11:00:29;3.05;;;1.40;;
75437;SDS011;64015;49.392;15.582;2023-09-19T11:05:34;3.65;;;1.38;;
75437;SDS011;64015;49.392;15.582;2023-09-19T11:08:09;3.25;;;1.23;;
75437;SDS011;64015;49.392;15.582;2023-09-19T11:10:44;3.08;;;1.13;;
75437;SDS011;64015;49.392;15.582;2023-09-19T11:13:29;2.55;;;1.10;;
75437;SDS011;64015;49.392;15.582;2023-09-19T11:16:03;2.05;;;0.80;;
75437;SDS011;64015;49.392;15.582;2023-09-19T11:26:47;2.22;;;0.90;;
75437;SDS011;64015;49.392;15.582;2023-09-19T11:29:26;3.25;;;1.23;;
75437;SDS011;64015;49.392;15.582;2023-09-19T11:31:54;4.50;;;1.63;;
75437;SDS011;64015;49.392;15.582;2023-09-19T11:34:46;1.80;;;1.00;;
75437;SDS011;64015;49.392;15.582;2023-09-19T11:48:15;1.95;;;1.15;;
75437;SDS011;64015;49.392;15.582;2023-09-19T11:50:44;1.63;;;0.65;;
75437;SDS011;64015;49.392;15.582;2023-09-19T11:53:12;3.72;;;1.00;;
75437;SDS011;64015;49.392;15.582;2023-09-19T11:55:39;2.92;;;1.00;;
75437;SDS011;64015;49.392;15.582;2023-09-19T11:58:08;3.58;;;0.88;;
75437;SDS011;64015;49.392;15.582;2023-09-19T12:03:09;1.48;;;0.70;;
75437;SDS011;64015;49.392;15.582;2023-09-19T12:05:40;2.75;;;0.73;;
75437;SDS011;64015;49.392;15.582;2023-09-19T12:08:06;3.28;;;0.85;;
75437;SDS011;64015;49.392;15.582;2023-09-19T12:10:55;2.30;;;0.98;;
75437;SDS011;64015;49.392;15.582;2023-09-19T12:13:21;2.75;;;1.02;;
75437;SDS011;64015;49.392;15.582;2023-09-19T12:15:47;3.38;;;1.00;;
75437;SDS011;64015;49.392;15.582;2023-09-19T12:18:29;2.92;;;1.05;;
75437;SDS011;64015;49.392;15.582;2023-09-19T12:20:56;1.95;;;0.70;;
75437;SDS011;64015;49.392;15.582;2023-09-19T12:23:23;2.60;;;1.30;;
75437;SDS011;64015;49.392;15.582;2023-09-19T12:25:51;3.05;;;1.02;;
75437;SDS011;64015;49.392;15.582;2023-09-19T12:28:20;2.83;;;1.00;;
75437;SDS011;64015;49.392;15.582;2023-09-19T12:30:49;2.10;;;0.80;;
75437;SDS011;64015;49.392;15.582;2023-09-19T12:33:19;2.25;;;0.98;;
75437;SDS011;64015;49.392;15.582;2023-09-19T12:35:46;2.88;;;1.27;;
75437;SDS011;64015;49.392;15.582;2023-09-19T12:38:22;2.50;;;0.80;;
75437;SDS011;64015;49.392;15.582;2023-09-19T12:40:56;2.28;;;0.80;;
75437;SDS011;64015;49.392;15.582;2023-09-19T12:43:25;3.40;;;1.00;;
75437;SDS011;64015;49.392;15.582;2023-09-19T12:45:53;2.15;;;0.77;;
75437;SDS011;64015;49.392;15.582;2023-09-19T12:48:20;2.33;;;0.80;;
75437;SDS011;64015;49.392;15.582;2023-09-19T12:50:58;2.03;;;0.77;;
75437;SDS011;64015;49.392;15.582;2023-09-19T12:53:34;2.25;;;0.70;;
75437;SDS011;64015;49.392;15.582;2023-09-19T12:56:09;2.42;;;0.80;;
75437;SDS011;64015;49.392;15.582;2023-09-19T12:58:52;2.75;;;1.02;;
75437;SDS011;64015;49.392;15.582;2023-09-19T13:01:25;3.75;;;1.20;;
75437;SDS011;64015;49.392;15.582;2023-09-19T13:06:48;3.65;;;0.95;;
75437;SDS011;64015;49.392;15.582;2023-09-19T13:09:21;2.92;;;1.42;;
75437;SDS011;64015;49.392;15.582;2023-09-19T13:11:50;3.55;;;1.23;;
75437;SDS011;64015;49.392;15.582;2023-09-19T13:14:28;3.78;;;1.27;;
75437;SDS011;64015;49.392;15.582;2023-09-19T13:17:03;2.60;;;1.23;;
75437;SDS011;64015;49.392;15.582;2023-09-19T13:22:21;2.20;;;1.20;;
75437;SDS011;64015;49.392;15.582;2023-09-19T13:25:25;2.00;;;1.20;;
75437;SDS011;64015;49.392;15.582;2023-09-19T13:27:55;4.35;;;1.30;;
75437;SDS011;64015;49.392;15.582;2023-09-19T13:30:22;2.80;;;1.63;;
75437;SDS011;64015;49.392;15.582;2023-09-19T13:32:52;2.28;;;1.10;;
75437;SDS011;64015;49.392;15.582;2023-09-19T13:35:30;3.15;;;1.70;;
75437;SDS011;64015;49.392;15.582;2023-09-19T13:37:56;2.05;;;1.10;;
75437;SDS011;64015;49.392;15.582;2023-09-19T13:40:21;1.80;;;1.00;;
75437;SDS011;64015;49.392;15.582;2023-09-19T13:42:47;2.28;;;1.17;;
75437;SDS011;64015;49.392;15.582;2023-09-19T13:47:42;2.30;;;1.20;;
75437;SDS011;64015;49.392;15.582;2023-09-19T13:50:08;3.15;;;1.30;;
75437;SDS011;64015;49.392;15.582;2023-09-19T13:52:34;2.28;;;1.30;;
75437;SDS011;64015;49.392;15.582;2023-09-19T13:55:03;3.05;;;1.10;;
75437;SDS011;64015;49.392;15.582;2023-09-19T13:57:31;5.13;;;1.10;;
75437;SDS011;64015;49.392;15.582;2023-09-19T13:59:58;2.33;;;1.00;;
75437;SDS011;64015;49.392;15.582;2023-09-19T14:02:24;3.85;;;1.15;;
75437;SDS011;64015;49.392;15.582;2023-09-19T14:04:51;2.35;;;1.50;;
75437;SDS011;64015;49.392;15.582;2023-09-19T14:07:17;2.40;;;1.15;;
75437;SDS011;64015;49.392;15.582;2023-09-19T14:09:45;2.33;;;1.00;;
75437;SDS011;64015;49.392;15.582;2023-09-19T14:12:12;2.72;;;1.10;;
75437;SDS011;64015;49.392;15.582;2023-09-19T14:14:38;2.70;;;1.27;;
75437;SDS011;64015;49.392;15.582;2023-09-19T14:17:08;2.67;;;1.50;;
75437;SDS011;64015;49.392;15.582;2023-09-19T14:19:34;4.00;;;1.20;;
75437;SDS011;64015;49.392;15.582;2023-09-19T14:22:02;2.22;;;1.13;;
75437;SDS011;64015;49.392;15.582;2023-09-19T14:24:33;3.00;;;1.30;;
75437;SDS011;64015;49.392;15.582;2023-09-19T14:26:59;2.83;;;1.40;;
75437;SDS011;64015;49.392;15.582;2023-09-19T14:29:24;2.42;;;1.30;;
75437;SDS011;64015;49.392;15.582;2023-09-19T14:31:50;2.30;;;1.10;;
75437;SDS011;64015;49.392;15.582;2023-09-19T14:34:17;2.72;;;1.08;;
75437;SDS011;64015;49.392;15.582;2023-09-19T14:36:43;3.40;;;1.23;;
75437;SDS011;64015;49.392;15.582;2023-09-19T14:39:08;4.13;;;1.08;;
75437;SDS011;64015;49.392;15.582;2023-09-19T14:41:34;2.90;;;1.25;;
75437;SDS011;64015;49.392;15.582;2023-09-19T14:44:02;2.47;;;0.93;;
75437;SDS011;64015;49.392;15.582;2023-09-19T14:46:29;6.15;;;1.33;;
75437;SDS011;64015;49.392;15.582;2023-09-19T14:51:25;2.88;;;1.20;;
75437;SDS011;64015;49.392;15.582;2023-09-19T14:53:57;3.55;;;1.23;;
75437;SDS011;64015;49.392;15.582;2023-09-19T14:56:23;6.65;;;2.50;;
75437;SDS011;64015;49.392;15.582;2023-09-19T14:58:50;5.38;;;2.00;;
75437;SDS011;64015;49.392;15.582;2023-09-19T15:01:17;2.60;;;1.30;;
75437;SDS011;64015;49.392;15.582;2023-09-19T15:03:42;4.00;;;1.40;;
75437;SDS011;64015;49.392;15.582;2023-09-19T15:06:09;3.03;;;1.42;;
75437;SDS011;64015;49.392;15.582;2023-09-19T15:08:38;3.33;;;1.35;;
75437;SDS011;64015;49.392;15.582;2023-09-19T15:11:09;4.00;;;1.35;;
75437;SDS011;64015;49.392;15.582;2023-09-19T15:13:35;2.58;;;1.08;;
75437;SDS011;64015;49.392;15.582;2023-09-19T15:16:06;3.40;;;1.17;;
75437;SDS011;64015;49.392;15.582;2023-09-19T15:18:34;2.13;;;1.00;;
75437;SDS011;64015;49.392;15.582;2023-09-19T15:21:06;2.28;;;1.15;;
75437;SDS011;64015;49.392;15.582;2023-09-19T15:23:32;2.90;;;1.38;;
75437;SDS011;64015;49.392;15.582;2023-09-19T15:26:10;2.80;;;1.02;;
75437;SDS011;64015;49.392;15.582;2023-09-19T15:28:37;3.15;;;1.00;;
75437;SDS011;64015;49.392;15.582;2023-09-19T15:34:09;4.07;;;1.10;;
75437;SDS011;64015;49.392;15.582;2023-09-19T15:36:38;2.83;;;1.23;;
75437;SDS011;64015;49.392;15.582;2023-09-19T15:39:10;5.10;;;2.17;;
75437;SDS011;64015;49.392;15.582;2023-09-19T15:41:41;2.65;;;1.30;;
75437;SDS011;64015;49.392;15.582;2023-09-19T15:44:14;2.35;;;1.10;;
75437;SDS011;64015;49.392;15.582;2023-09-19T15:46:41;3.40;;;1.45;;
75437;SDS011;64015;49.392;15.582;2023-09-19T15:49:08;3.47;;;1.48;;
75437;SDS011;64015;49.392;15.582;2023-09-19T15:51:35;2.97;;;1.10;;
75437;SDS011;64015;49.392;15.582;2023-09-19T15:54:01;7.35;;;1.60;;
75437;SDS011;64015;49.392;15.582;2023-09-19T15:56:34;5.18;;;1.20;;
75437;SDS011;64015;49.392;15.582;2023-09-19T15:59:00;3.95;;;1.35;;
75437;SDS011;64015;49.392;15.582;2023-09-19T16:01:29;2.42;;;1.20;;
75437;SDS011;64015;49.392;15.582;2023-09-19T16:03:54;4.43;;;1.10;;
75437;SDS011;64015;49.392;15.582;2023-09-19T16:06:25;3.60;;;1.13;;
75437;SDS011;64015;49.392;15.582;2023-09-19T16:08:52;2.72;;;1.05;;
75437;SDS011;64015;49.392;15.582;2023-09-19T16:11:21;2.38;;;1.10;;
75437;SDS011;64015;49.392;15.582;2023-09-19T16:13:48;3.45;;;1.00;;
75437;SDS011;64015;49.392;15.582;2023-09-19T16:16:15;2.78;;;1.08;;
75437;SDS011;64015;49.392;15.582;2023-09-19T16:18:52;2.67;;;0.90;;
75437;SDS011;64015;49.392;15.582;2023-09-19T16:21:23;2.55;;;1.10;;
75437;SDS011;64015;49.392;15.582;2023-09-19T16:23:51;2.70;;;1.17;;
75437;SDS011;64015;49.392;15.582;2023-09-19T16:26:19;2.70;;;0.80;;
75437;SDS011;64015;49.392;15.582;2023-09-19T16:28:46;3.90;;;0.82;;
75437;SDS011;64015;49.392;15.582;2023-09-19T16:31:16;1.63;;;0.80;;
75437;SDS011;64015;49.392;15.582;2023-09-19T16:33:43;1.80;;;0.85;;
75437;SDS011;64015;49.392;15.582;2023-09-19T16:36:10;2.28;;;0.60;;
75437;SDS011;64015;49.392;15.582;2023-09-19T16:38:37;1.20;;;0.50;;
75437;SDS011;64015;49.392;15.582;2023-09-19T16:41:04;2.25;;;0.57;;
75437;SDS011;64015;49.392;15.582;2023-09-19T16:43:31;1.90;;;0.45;;
75437;SDS011;64015;49.392;15.582;2023-09-19T16:46:00;3.00;;;0.70;;
75437;SDS011;64015;49.392;15.582;2023-09-19T16:48:42;2.40;;;1.02;;
75437;SDS011;64015;49.392;15.582;2023-09-19T16:51:10;1.25;;;0.50;;
75437;SDS011;64015;49.392;15.582;2023-09-19T16:53:37;2.00;;;0.73;;
75437;SDS011;64015;49.392;15.582;2023-09-19T16:56:16;1.60;;;0.57;;
75437;SDS011;64015;49.392;15.582;2023-09-19T16:58:44;2.90;;;0.73;;
75437;SDS011;64015;49.392;15.582;2023-09-19T17:01:12;2.72;;;0.80;;
75437;SDS011;64015;49.392;15.582;2023-09-19T17:03:58;2.15;;;0.73;;
75437;SDS011;64015;49.392;15.582;2023-09-19T17:09:47;2.22;;;0.90;;
75437;SDS011;64015;49.392;15.582;2023-09-19T17:12:32;3.17;;;0.75;;
75437;SDS011;64015;49.392;15.582;2023-09-19T17:17:57;2.90;;;0.73;;
75437;SDS011;64015;49.392;15.582;2023-09-19T17:20:24;1.77;;;0.70;;
75437;SDS011;64015;49.392;15.582;2023-09-19T17:23:05;3.28;;;0.70;;
75437;SDS011;64015;49.392;15.582;2023-09-19T17:28:38;1.95;;;0.77;;
75437;SDS011;64015;49.392;15.582;2023-09-19T17:31:18;1.80;;;0.70;;
75437;SDS011;64015;49.392;15.582;2023-09-19T17:33:46;2.15;;;0.73;;
75437;SDS011;64015;49.392;15.582;2023-09-19T17:36:23;2.50;;;0.57;;
75437;SDS011;64015;49.392;15.582;2023-09-19T17:38:51;4.47;;;1.48;;
75437;SDS011;64015;49.392;15.582;2023-09-19T17:41:19;3.60;;;0.90;;
75437;SDS011;64015;49.392;15.582;2023-09-19T17:43:51;3.92;;;1.45;;
75437;SDS011;64015;49.392;15.582;2023-09-19T17:46:35;3.40;;;1.20;;
75437;SDS011;64015;49.392;15.582;2023-09-19T17:49:06;4.03;;;1.13;;
75437;SDS011;64015;49.392;15.582;2023-09-19T17:51:33;3.40;;;1.23;;
75437;SDS011;64015;49.392;15.582;2023-09-19T17:53:59;2.50;;;1.27;;
75437;SDS011;64015;49.392;15.582;2023-09-19T17:56:27;3.90;;;1.10;;
75437;SDS011;64015;49.392;15.582;2023-09-19T17:58:55;2.78;;;1.58;;
75437;SDS011;64015;49.392;15.582;2023-09-19T18:01:25;4.22;;;1.48;;
75437;SDS011;64015;49.392;15.582;2023-09-19T18:03:57;3.33;;;1.20;;
75437;SDS011;64015;49.392;15.582;2023-09-19T18:06:24;6.22;;;1.63;;
75437;SDS011;64015;49.392;15.582;2023-09-19T18:08:54;3.40;;;1.30;;
75437;SDS011;64015;49.392;15.582;2023-09-19T18:11:20;2.60;;;1.27;;
75437;SDS011;64015;49.392;15.582;2023-09-19T18:13:50;3.13;;;1.15;;
75437;SDS011;64015;49.392;15.582;2023-09-19T18:16:18;4.13;;;1.52;;
75437;SDS011;64015;49.392;15.582;2023-09-19T18:23:41;6.10;;;1.58;;
75437;SDS011;64015;49.392;15.582;2023-09-19T18:26:07;5.63;;;1.55;;
75437;SDS011;64015;49.392;15.582;2023-09-19T18:28:36;4.85;;;1.40;;
75437;SDS011;64015;49.392;15.582;2023-09-19T18:31:07;4.78;;;1.45;;
75437;SDS011;64015;49.392;15.582;2023-09-19T18:33:35;3.33;;;1.30;;
75437;SDS011;64015;49.392;15.582;2023-09-19T18:36:05;3.22;;;1.10;;
75437;SDS011;64015;49.392;15.582;2023-09-19T18:38:39;3.70;;;1.20;;
75437;SDS011;64015;49.392;15.582;2023-09-19T18:41:06;1.88;;;0.77;;
75437;SDS011;64015;49.392;15.582;2023-09-19T18:43:35;2.67;;;1.10;;
75437;SDS011;64015;49.392;15.582;2023-09-19T18:46:03;2.70;;;0.85;;
75437;SDS011;64015;49.392;15.582;2023-09-19T18:48:31;2.70;;;1.10;;
75437;SDS011;64015;49.392;15.582;2023-09-19T18:50:57;4.80;;;1.70;;
75437;SDS011;64015;49.392;15.582;2023-09-19T18:53:28;3.42;;;1.50;;
75437;SDS011;64015;49.392;15.582;2023-09-19T18:56:10;5.68;;;1.20;;
75437;SDS011;64015;49.392;15.582;2023-09-19T19:02:22;5.65;;;1.80;;
75437;SDS011;64015;49.392;15.582;2023-09-19T19:07:14;3.53;;;1.65;;
75437;SDS011;64015;49.392;15.582;2023-09-19T19:09:42;3.72;;;1.60;;
75437;SDS011;64015;49.392;15.582;2023-09-19T19:12:08;3.47;;;1.33;;
75437;SDS011;64015;49.392;15.582;2023-09-19T19:14:35;4.28;;;1.70;;
75437;SDS011;64015;49.392;15.582;2023-09-19T19:17:01;3.25;;;1.40;;
75437;SDS011;64015;49.392;15.582;2023-09-19T19:21:53;6.05;;;1.50;;
75437;SDS011;64015;49.392;15.582;2023-09-19T19:24:19;3.50;;;1.42;;
75437;SDS011;64015;49.392;15.582;2023-09-19T19:26:48;3.85;;;1.50;;
75437;SDS011;64015;49.392;15.582;2023-09-19T19:29:15;4.13;;;1.80;;
75437;SDS011;64015;49.392;15.582;2023-09-19T19:31:41;6.20;;;1.77;;
75437;SDS011;64015;49.392;15.582;2023-09-19T19:34:07;6.03;;;2.22;;
75437;SDS011;64015;49.392;15.582;2023-09-19T19:36:33;4.65;;;1.90;;
75437;SDS011;64015;49.392;15.582;2023-09-19T19:38:59;5.82;;;2.00;;
75437;SDS011;64015;49.392;15.582;2023-09-19T19:41:26;4.65;;;2.00;;
75437;SDS011;64015;49.392;15.582;2023-09-19T19:43:53;4.72;;;1.88;;
75437;SDS011;64015;49.392;15.582;2023-09-19T19:46:19;5.32;;;1.85;;
75437;SDS011;64015;49.392;15.582;2023-09-19T19:48:48;4.32;;;2.25;;
75437;SDS011;64015;49.392;15.582;2023-09-19T19:51:17;6.45;;;2.15;;
75437;SDS011;64015;49.392;15.582;2023-09-19T19:53:43;4.75;;;1.67;;
75437;SDS011;64015;49.392;15.582;2023-09-19T19:56:09;4.50;;;2.17;;
75437;SDS011;64015;49.392;15.582;2023-09-19T19:58:35;3.80;;;2.20;;
75437;SDS011;64015;49.392;15.582;2023-09-19T20:01:01;3.83;;;1.90;;
75437;SDS011;64015;49.392;15.582;2023-09-19T20:03:27;5.22;;;1.77;;